Hettinger, ND

5:53 PM MDT on August 28, 2015 (GMT -0600)
Hettinger Municipal | | Change Station
CLOSE
Current Station
Airport
Location: Hettinger,
Elevation: 2703 ft
Nearby Weather Stations
Active Advisory: Fire Weather Watch

Elev 2703 ft 46.01 °N, 102.66 °W | Updated 1 hour ago

Clear
Clear
86 °F
Feels Like 86 °F
N
13
Wind Variable Wind from West

Today
High -- | Low -- °F
--% Chance of Precip.
Yesterday
High -- | Low -- °F
Precip. -- in
6:06 AM 7:36 PM
Waxing Gibbous, 99% visible
Pressure 29.91 in
Visibility 5.0 miles
Clouds Clear
Dew Point 50 °F
Humidity 29%
Rainfall 0.00 in
Snow Depth Not available.
UV 3 out of 12
Pollen 9.70 out of 12
Air Quality Not available.
Flu Activity Not available.
METAR KHEI 282253Z AUTO 26011KT 5SM HZ CLR 30/10 A2996 RMK AO2 SLP127 T03000100
Pressure 29.91 in
Visibility 5.0 miles
Clouds Clear
Dew Point 50 °F
Humidity 29%
Rainfall 0.00 in
Snow Depth Not available.
UV 3 out of 12
Pollen 9.70 out of 12
Air Quality Not available.
Flu Activity Not available.
METAR KHEI 282253Z AUTO 26011KT 5SM HZ CLR 30/10 A2996 RMK AO2 SLP127 T03000100

10-Day Weather Forecast

×

Almanac

Astronomy

Aug. 28, 2015 Rise Set
Actual Time
Civil Twilight
Nautical Twilight
Astronomical Twilight
Moon
Length of Visible Light
Length of Day
Tomorrow will be .
, % of the Moon is Illuminated

Today's Extremes

State Highs State Lows

Community

WunderPhotos

Upload Photos

1,850,532 photos uploaded!

WunderBlogs® & News

Nearby

Air Quality

  Air Quality AQ Index Pollutant
Not available.

Snow Depth

Station Depth Elevation

Earthquake Activity

City Distance Mag. Time & Date
Minimum magnitude displayed is 2.5.

Coastal Water Temperatures

Place Temperature

Stations

Nearby Weather Stations

Station Location Temp. Windchill Dew Point Humidity Wind Precip. Elev Updated Type
                   
Fire Weather Watch
Statement as of 5:38 PM MDT on August 28, 2015

... Fire Weather Watch remains in effect from Saturday morning
through Saturday evening for gust south winds and low relative
humidity for western North Dakota...

* affected area... fire weather zones 001... 002... 009... 010...
011... 017... 018... 019... 020... 021... 031... 032... 033... 034...
040... 041... 042... 043... 044 and 045.

* Wind... south wind 15 to 25 mph.

* Timing... late Saturday morning through evening.

* Humidity... as low as 15 percent.

* Temperatures... 93 to 99.

* Impacts... any fires that develop could spread rapidly.
Outdoor burning is not recommended.

Precautionary/preparedness actions...

A Fire Weather Watch means that critical fire weather conditions
are forecast to occur. Listen for later forecasts and possible
red flag warnings.



Ayd